• Join FlightAware (Why Join?)
  • Login
  • US Flag 
10:59AM EDT


 

Airport Tracker/Info


-or-


 

Live Flight TrackerFlight Track Log ✈ ASQ5740 ✈ 22 Sep 2013 ✈ KGSP - KIAD

Flight Track Log - Related Links

Times and Time Zones

All times are in EDT time to prevent confusion due to time zone crossing. See the ASQ5740 flight status page for this flight to view local times or setup timezone preferences in your user account.

Time Position Orientation Groundspeed Altitude Reporting Facility
EDT Latitude Longitude Course Direction KTS MPH feet Rate Location/Type
02:48PM 35.0253 -82.1289 30° Northeast 226 260 6,100  Level Atlanta Center
02:49PM 35.2185 -81.8651 North  Level Estimated
02:49PM 35.0850 -82.0767 36° Northeast 245 282 8,600  Level Atlanta Center
02:50PM 35.2991 -81.7762 80° East  Level Estimated
02:50PM 35.1444 -82.0144 41° Northeast 271 312 10,400  Level Atlanta Center
02:51PM 35.3796 -81.6871 71° East  Level Estimated
02:51PM 35.2122 -81.9492 38° Northeast 296 341 12,200  Level Atlanta Center
02:52PM 35.2911 -81.9167 19° North 289 333 13,800 1,680 Climbing Atlanta Center
02:53PM 35.3328 -81.8061 65° Northeast 289 333 15,600 1,500 Climbing Atlanta Center
02:54PM 35.3725 -81.6981 66° East 318 366 16,900 1,320 Climbing Atlanta Center
02:55PM 35.4164 -81.5872 64° Northeast 350 403 18,300 1,260 Climbing Atlanta Center
02:56PM 35.4600 -81.4736 65° Northeast 365 420 19,500 1,200 Climbing Atlanta Center
02:57PM 35.5075 -81.3550 64° Northeast 365 420 20,800 1,080 Climbing Atlanta Center
02:58PM 35.5428 -81.2594 66° East 371 427 21,700 1,080 Climbing Atlanta Center
02:59PM 35.6019 -81.1092 64° Northeast 381 438 23,000 1,200 Climbing Atlanta Center
03:00PM 35.6533 -80.9872 63° Northeast 393 452 24,100 1,080 Climbing Atlanta Center
03:01PM 35.7003 -80.8678 64° Northeast 387 445 25,200 900 Climbing Atlanta Center
03:02PM 35.7492 -80.7431 64° Northeast 387 445 26,000 840 Climbing Atlanta Center
03:03PM 35.7997 -80.6156 64° Northeast 392 451 26,900 360 Climbing Atlanta Center
03:04PM 35.8822 -80.3964 65° Northeast 436 502 27,000  Climbing Washington Center
03:05PM 35.9333 -80.2633 65° Northeast 436 502 27,000  Level Washington Center
03:06PM 35.9844 -80.1303 65° Northeast 431 496 27,000  Level Washington Center
03:07PM 36.0303 -80.0200 63° Northeast 418 481 27,000  Level Washington Center
03:08PM 36.0908 -79.9025 57° Northeast 407 468 27,000  Level Washington Center
03:09PM 36.1556 -79.7903 54° Northeast 402 463 27,000  Level Washington Center
03:10PM 36.2178 -79.6753 56° Northeast 402 463 27,000  Level Washington Center
03:11PM 36.2867 -79.5525 55° Northeast 397 457 27,000 -120 Level Washington Center
03:12PM 36.3422 -79.4522 55° Northeast 392 451 26,800 -480 Descending Washington Center
03:13PM 36.4042 -79.3392 56° Northeast 392 451 26,100 -720 Descending Washington Center
03:14PM 36.4703 -79.2236 55° Northeast 402 463 25,400 -600 Descending Washington Center
03:15PM 36.5361 -79.1128 54° Northeast 402 463 25,000 -240 Descending Washington Center
03:16PM 36.6003 -78.9942 56° Northeast 402 463 25,000  Level Washington Center
03:17PM 36.6683 -78.8678 56° Northeast 397 457 25,000  Level Washington Center
03:18PM 36.7297 -78.7536 56° Northeast 397 457 25,000  Level Washington Center
03:19PM 36.7844 -78.6547 55° Northeast 397 457 25,000 -240 Level Washington Center
03:20PM 36.8458 -78.5428 56° Northeast 392 451 24,600 -600 Descending Washington Center
03:21PM 36.9156 -78.4183 55° Northeast 392 451 23,800 -780 Descending Washington Center
03:22PM 36.9767 -78.3036 56° Northeast 392 451 23,100 -720 Descending Washington Center
03:23PM 37.0458 -78.1992 50° Northeast 392 451 22,400 -600 Descending Washington Center
03:24PM 37.1283 -78.1394 30° Northeast 374 430 22,000 -240 Descending Washington Center
03:25PM 37.2175 -78.0694 32° Northeast 369 425 22,000  Level Washington Center
03:26PM 37.3064 -78.0019 31° Northeast 374 430 22,000  Level Washington Center
03:27PM 37.3975 -77.9289 32° Northeast 374 430 22,000  Level Washington Center
03:28PM 37.4886 -77.8611 31° Northeast 374 430 22,000  Level Washington Center
03:29PM 37.5836 -77.7983 28° Northeast 380 437 22,000 -360 Level Washington Center
03:30PM 37.6806 -77.7383 26° Northeast 380 437 21,300 -1,620 Descending Washington Center
03:31PM 37.7797 -77.6831 24° Northeast 380 437 18,900 -2,400 Descending Washington Center
03:32PM 37.8744 -77.6253 26° Northeast 380 437 16,600 -2,160 Descending Washington Center
03:33PM 37.9650 -77.5750 24° Northeast 374 430 14,600 -1,980 Descending Washington Center
03:34PM 38.0597 -77.5197 25° Northeast 352 405 12,700 -1,920 Descending Washington Center
03:35PM 38.1439 -77.4717 24° Northeast 336 387 10,900 -1,380 Descending Washington Center
03:36PM 38.2197 -77.4233 27° Northeast 319 367 10,000 -780 Descending Washington Center
03:37PM 38.2950 -77.4067 10° North 281 323 9,400 -660 Descending Washington Center
03:38PM 38.3656 -77.4428 338° Northwest 263 303 8,700 -720 Descending Washington Center
03:39PM 38.4381 -77.4711 343° North 263 303 8,000 -720 Descending Washington Center
03:40PM 38.5131 -77.4703 360° North 263 303 7,300 -720 Descending Washington Center
03:41PM 38.5839 -77.4694 North 263 303 6,600 -780 Descending Washington Center
03:42PM 38.6500 -77.4667 North 220 253 5,900 -780 Descending Potomac TRACON
03:43PM 38.7000 -77.4667 360° North 213 245 5,100 -1,020 Descending Potomac TRACON
03:44PM 38.7667 -77.4667 360° North 205 236 3,900 -1,260 Descending Potomac TRACON
03:45PM 38.8167 -77.4667 360° North 215 247 2,700 -1,140 Descending Potomac TRACON
03:46PM 38.8667 -77.4667 360° North 173 199 1,700 -900 Descending Potomac TRACON
03:47PM 38.9167 -77.4667 360° North 139 160 900 -840 Descending Potomac TRACON